createdAt,value
2023-05-12T00:01:21.718Z,7.00
2023-05-12T00:03:54.001Z,6.20
2023-05-12T00:06:24.721Z,6.97
2023-05-12T00:08:55.710Z,6.75
2023-05-12T00:11:26.420Z,5.40
2023-05-12T00:13:58.490Z,6.07
2023-05-12T00:16:28.735Z,6.40
2023-05-12T00:18:59.404Z,6.38
2023-05-12T00:21:29.685Z,5.25
2023-05-12T00:24:00.491Z,6.50
2023-05-12T00:26:31.184Z,4.95
2023-05-12T00:29:03.401Z,4.80
2023-05-12T00:31:33.776Z,5.38
2023-05-12T00:34:04.321Z,5.30
2023-05-12T00:36:34.675Z,4.20
2023-05-12T00:39:05.386Z,5.60
2023-05-12T00:41:35.657Z,5.25
2023-05-12T00:44:07.823Z,5.32
2023-05-12T00:46:39.302Z,5.65
2023-05-12T00:49:10.032Z,4.60
2023-05-12T00:51:41.801Z,5.40
2023-05-12T00:54:12.679Z,5.05
2023-05-12T00:56:43.466Z,5.18
2023-05-12T00:59:15.722Z,4.90
2023-05-12T01:01:46.490Z,4.93
2023-05-12T01:04:17.495Z,5.30
2023-05-12T01:06:56.145Z,4.65
2023-05-12T01:09:27.014Z,5.30
2023-05-12T01:11:58.564Z,5.35
2023-05-12T01:14:31.204Z,4.75
2023-05-12T01:17:04.803Z,5.05
2023-05-12T01:19:43.282Z,4.68
2023-05-12T01:22:14.658Z,5.47
2023-05-12T01:24:51.281Z,4.93
2023-05-12T01:27:27.530Z,5.20
2023-05-12T01:30:03.149Z,5.05
2023-05-12T01:32:37.732Z,5.03
2023-05-12T01:35:10.323Z,4.47
2023-05-12T01:37:43.690Z,6.18
2023-05-12T01:40:14.931Z,5.00
2023-05-12T01:42:47.228Z,5.53
2023-05-12T01:45:18.687Z,9.65
2023-05-12T01:47:49.509Z,16.83
2023-05-12T01:50:21.267Z,18.65
2023-05-12T01:52:51.976Z,19.67
2023-05-12T01:55:24.162Z,18.75
2023-05-12T01:57:59.968Z,9.50
2023-05-12T02:00:30.603Z,7.68
2023-05-12T02:03:03.247Z,7.10
2023-05-12T02:05:33.897Z,5.80
2023-05-12T02:08:05.803Z,6.13
2023-05-12T02:10:37.092Z,5.85
2023-05-12T02:13:09.292Z,5.45
2023-05-12T02:15:40.225Z,5.35
2023-05-12T02:18:12.623Z,5.23
2023-05-12T02:20:43.711Z,5.60
2023-05-12T02:23:15.452Z,5.10
2023-05-12T02:25:46.920Z,5.55
2023-05-12T02:28:18.679Z,5.40
2023-05-12T02:30:50.721Z,5.25
2023-05-12T02:33:22.254Z,5.70
2023-05-12T02:38:25.530Z,5.63
2023-05-12T02:40:56.326Z,5.30
2023-05-12T02:43:28.844Z,5.50
2023-05-12T02:45:59.536Z,5.28
2023-05-12T02:48:30.799Z,6.95
2023-05-12T02:51:02.506Z,7.30
2023-05-12T02:53:33.473Z,6.55
2023-05-12T02:56:04.492Z,8.32
2023-05-12T02:58:36.737Z,8.30
2023-05-12T03:01:11.314Z,8.83
2023-05-12T03:03:43.392Z,8.88
2023-05-12T03:06:43.414Z,8.43
2023-05-12T03:09:14.634Z,10.30
2023-05-12T03:11:45.485Z,19.83
2023-05-12T03:14:17.578Z,21.08
2023-05-12T03:16:49.332Z,17.67
2023-05-12T03:19:19.925Z,22.23
2023-05-12T03:21:50.531Z,24.20
2023-05-12T03:24:20.922Z,25.58
2023-05-12T03:26:51.723Z,22.63
2023-05-12T03:29:24.755Z,21.25
2023-05-12T03:31:55.455Z,19.10
2023-05-12T03:34:25.780Z,16.10
2023-05-12T03:36:56.676Z,7.72
2023-05-12T03:39:28.103Z,7.18
2023-05-12T03:41:59.152Z,7.00
2023-05-12T03:44:31.002Z,7.15
2023-05-12T03:47:01.971Z,6.43
2023-05-12T03:49:32.319Z,7.00
2023-05-12T03:52:03.245Z,6.85
2023-05-12T03:54:34.437Z,6.03
2023-05-12T03:57:06.903Z,6.43
2023-05-12T03:59:38.835Z,6.10
2023-05-12T04:02:11.897Z,5.55
2023-05-12T04:04:43.278Z,5.88
2023-05-12T04:07:14.160Z,5.45
2023-05-12T04:09:45.128Z,5.30
2023-05-12T04:12:15.760Z,6.15
2023-05-12T04:14:48.353Z,6.05
2023-05-12T04:17:20.904Z,5.60
2023-05-12T04:19:52.767Z,5.40
2023-05-12T04:22:25.764Z,5.27
2023-05-12T04:24:59.004Z,5.95
2023-05-12T04:27:29.893Z,5.15
2023-05-12T04:30:01.904Z,5.38
2023-05-12T04:32:37.577Z,6.22
2023-05-12T04:35:11.054Z,7.60
2023-05-12T04:37:43.030Z,6.10
2023-05-12T04:40:15.453Z,5.47
2023-05-12T04:42:46.757Z,5.70
2023-05-12T04:45:20.531Z,5.32
2023-05-12T04:47:52.362Z,5.20
2023-05-12T04:50:24.494Z,5.45
2023-05-12T04:52:55.921Z,5.70
2023-05-12T04:55:26.796Z,6.15
2023-05-12T04:57:57.568Z,5.95
2023-05-12T05:00:30.073Z,6.15
2023-05-12T05:03:03.961Z,5.30
2023-05-12T05:08:09.839Z,5.22
2023-05-12T05:10:40.485Z,5.47
2023-05-12T05:13:12.931Z,5.30
2023-05-12T05:15:54.012Z,5.40
2023-05-12T05:18:30.497Z,5.40
2023-05-12T05:21:01.038Z,5.18
2023-05-12T05:23:32.183Z,5.68
2023-05-12T05:26:04.887Z,5.55
2023-05-12T05:28:35.805Z,5.43
2023-05-12T05:31:08.400Z,5.55
2023-05-12T05:33:39.085Z,5.70
2023-05-12T05:36:10.387Z,5.07
2023-05-12T05:38:41.530Z,5.65
2023-05-12T05:41:12.804Z,4.82
2023-05-12T05:43:43.794Z,5.20
2023-05-12T05:46:16.925Z,5.35
2023-05-12T05:48:49.843Z,4.72
2023-05-12T05:51:21.010Z,5.40
2023-05-12T05:53:54.061Z,4.72
2023-05-12T05:56:24.873Z,5.47
2023-05-12T05:58:57.125Z,4.80
2023-05-12T06:01:29.199Z,4.82
2023-05-12T06:04:00.422Z,5.93
2023-05-12T06:06:33.396Z,4.97
2023-05-12T06:09:04.406Z,4.78
2023-05-12T06:11:39.294Z,4.23
2023-05-12T06:14:11.645Z,5.28
2023-05-12T06:16:43.535Z,4.75
2023-05-12T06:19:14.455Z,4.78
2023-05-12T06:21:44.916Z,4.80
2023-05-12T06:24:16.757Z,4.85
2023-05-12T06:26:47.085Z,4.70
2023-05-12T06:29:17.772Z,4.65
2023-05-12T06:31:49.922Z,5.25
2023-05-12T06:34:20.388Z,5.03
2023-05-12T06:36:50.687Z,5.15
2023-05-12T06:39:21.423Z,4.57
2023-05-12T06:41:52.211Z,5.00
2023-05-12T06:44:25.825Z,5.30
2023-05-12T06:46:57.951Z,4.97
2023-05-12T06:49:28.693Z,4.85
2023-05-12T06:51:59.077Z,4.85
2023-05-12T06:54:29.694Z,5.25
2023-05-12T06:57:01.925Z,4.30
2023-05-12T06:59:32.578Z,4.95
2023-05-12T07:02:04.301Z,4.80
2023-05-12T07:04:36.138Z,4.85
2023-05-12T07:07:06.662Z,7.53
2023-05-12T07:09:37.279Z,4.95
2023-05-12T07:12:09.466Z,5.03
2023-05-12T07:14:40.202Z,4.82
2023-05-12T07:17:12.095Z,5.00
2023-05-12T07:19:43.693Z,4.40
2023-05-12T07:22:14.565Z,4.13
2023-05-12T07:24:45.474Z,4.25
2023-05-12T07:27:16.003Z,4.53
2023-05-12T07:29:46.687Z,5.20
2023-05-12T07:32:18.474Z,4.25
2023-05-12T07:34:49.094Z,4.18
2023-05-12T07:37:19.419Z,4.13
2023-05-12T07:39:49.931Z,4.50
2023-05-12T07:42:20.235Z,5.13
2023-05-12T07:44:50.954Z,5.35
2023-05-12T07:47:22.599Z,4.97
2023-05-12T07:49:53.178Z,6.40
2023-05-12T07:52:24.297Z,6.43
2023-05-12T07:54:54.877Z,5.13
2023-05-12T07:57:25.253Z,4.20
2023-05-12T07:59:56.159Z,5.10
2023-05-12T08:02:27.788Z,5.53
2023-05-12T08:04:58.581Z,4.78
2023-05-12T08:07:29.006Z,4.28
2023-05-12T08:09:59.701Z,4.55
2023-05-12T08:12:30.254Z,3.85
2023-05-12T08:15:01.217Z,4.15
2023-05-12T08:17:33.642Z,4.40
2023-05-12T08:20:05.319Z,4.13
2023-05-12T08:22:36.194Z,3.83
2023-05-12T08:25:09.769Z,4.30
2023-05-12T08:27:42.180Z,4.65
2023-05-12T08:30:14.134Z,5.25
2023-05-12T08:32:46.423Z,4.05
2023-05-12T08:35:17.043Z,4.38
2023-05-12T08:37:47.322Z,4.75
2023-05-12T08:40:23.678Z,4.57
2023-05-12T08:43:08.862Z,4.05
2023-05-12T08:45:40.256Z,3.95
2023-05-12T08:48:13.754Z,5.00
2023-05-12T08:50:45.864Z,3.63
2023-05-12T08:53:20.175Z,4.78
2023-05-12T08:57:08.184Z,5.18
2023-05-12T08:58:43.914Z,10.55
2023-05-12T09:01:18.631Z,4.10
2023-05-12T09:04:09.261Z,4.33
2023-05-12T09:06:40.035Z,5.13
2023-05-12T09:09:10.756Z,4.28
2023-05-12T09:11:43.564Z,4.40
2023-05-12T09:14:20.284Z,4.03
2023-05-12T09:16:55.047Z,3.53
2023-05-12T09:19:26.975Z,3.72
2023-05-12T09:21:57.614Z,4.10
2023-05-12T09:24:36.450Z,3.67
2023-05-12T09:27:08.302Z,3.63
2023-05-12T09:29:59.236Z,4.20
2023-05-12T09:32:35.598Z,3.75
2023-05-12T09:35:12.242Z,3.60
2023-05-12T09:37:43.816Z,3.45
2023-05-12T09:40:17.235Z,3.70
2023-05-12T09:42:50.723Z,3.42
2023-05-12T09:45:23.803Z,3.10
2023-05-12T09:47:54.999Z,3.58
2023-05-12T09:50:30.656Z,3.05
2023-05-12T09:53:08.122Z,3.22
2023-05-12T09:55:38.517Z,2.92
2023-05-12T09:58:11.798Z,2.72
2023-05-12T10:00:59.117Z,3.10
2023-05-12T10:03:36.359Z,3.03
2023-05-12T10:06:13.224Z,3.40
2023-05-12T10:08:50.663Z,2.45
2023-05-12T10:11:22.522Z,3.20
2023-05-12T10:13:54.557Z,6.47
2023-05-12T10:16:25.451Z,2.83
2023-05-12T10:18:56.904Z,2.60
2023-05-12T10:21:28.960Z,3.15
2023-05-12T10:24:00.958Z,2.80
2023-05-12T10:26:33.794Z,2.65
2023-05-12T10:31:36.256Z,3.20
2023-05-12T10:34:07.168Z,2.57
2023-05-12T10:36:49.351Z,2.72
2023-05-12T10:39:20.068Z,3.45
2023-05-12T10:41:51.146Z,2.47
2023-05-12T10:44:29.535Z,2.33
2023-05-12T10:47:00.512Z,2.70
2023-05-12T10:49:37.680Z,2.80
2023-05-12T10:52:11.996Z,2.55
2023-05-12T10:54:45.184Z,2.42
2023-05-12T10:57:18.959Z,2.30
2023-05-12T10:59:51.766Z,2.38
2023-05-12T11:02:29.972Z,2.42
2023-05-12T11:07:37.615Z,2.22
2023-05-12T11:10:10.707Z,2.40
2023-05-12T11:12:44.129Z,1.92
2023-05-12T11:15:17.295Z,2.42
2023-05-12T11:17:48.482Z,2.45
2023-05-12T11:20:24.911Z,2.03
2023-05-12T11:22:56.748Z,4.60
2023-05-12T11:25:29.509Z,2.60
2023-05-12T11:27:59.963Z,2.65
2023-05-12T11:30:30.802Z,2.80
2023-05-12T11:33:04.808Z,3.60
2023-05-12T11:35:35.747Z,2.22
2023-05-12T11:38:17.659Z,5.53
2023-05-12T11:40:49.199Z,2.08
2023-05-12T11:43:22.910Z,2.58
2023-05-12T11:45:55.513Z,2.45
2023-05-12T11:48:36.240Z,2.50
2023-05-12T11:51:06.992Z,2.15
2023-05-12T11:53:42.355Z,2.10
2023-05-12T11:56:20.561Z,2.05
2023-05-12T11:58:58.565Z,2.25
2023-05-12T12:01:29.197Z,2.10
2023-05-12T12:03:59.583Z,2.47
2023-05-12T12:06:30.220Z,15.15
2023-05-12T12:09:02.251Z,2.35
2023-05-12T12:11:34.869Z,2.17
2023-05-12T12:14:05.337Z,2.17
2023-05-12T12:16:36.173Z,1.70
2023-05-12T12:19:07.554Z,5.68
2023-05-12T12:21:38.428Z,2.03
2023-05-12T12:24:10.533Z,4.88
2023-05-12T12:26:41.293Z,2.17
2023-05-12T12:29:11.615Z,2.30
2023-05-12T12:31:42.643Z,1.90
2023-05-12T12:34:12.881Z,2.30
2023-05-12T12:36:43.673Z,2.28
2023-05-12T12:39:16.770Z,1.65
2023-05-12T12:41:49.408Z,2.15
2023-05-12T12:44:19.813Z,1.90
2023-05-12T12:46:50.447Z,1.75
2023-05-12T12:49:20.734Z,2.17
2023-05-12T12:51:51.723Z,2.25
2023-05-12T12:54:27.354Z,1.90
2023-05-12T12:56:58.566Z,2.38
2023-05-12T12:59:29.458Z,1.95
2023-05-12T13:02:01.502Z,2.20
2023-05-12T13:04:32.081Z,2.45
2023-05-12T13:07:02.728Z,2.00
2023-05-12T13:09:34.532Z,4.40
2023-05-12T13:12:06.529Z,4.07
2023-05-12T13:14:36.790Z,2.70
2023-05-12T13:17:08.193Z,2.22
2023-05-12T13:19:38.850Z,3.10
2023-05-12T13:22:09.521Z,1.80
2023-05-12T13:24:41.446Z,2.30
2023-05-12T13:27:12.383Z,2.17
2023-05-12T13:29:47.314Z,2.10
2023-05-12T13:32:18.507Z,3.38
2023-05-12T13:34:48.635Z,2.40
2023-05-12T13:37:19.112Z,2.03
2023-05-12T13:39:50.628Z,2.67
2023-05-12T13:42:22.566Z,1.83
2023-05-12T13:44:53.567Z,1.50
2023-05-12T13:47:24.328Z,1.60
2023-05-12T13:49:56.632Z,1.73
2023-05-12T13:52:27.630Z,1.70
2023-05-12T13:54:59.429Z,2.17
2023-05-12T13:57:30.193Z,2.30
2023-05-12T14:00:00.899Z,2.20
2023-05-12T14:02:31.707Z,2.13
2023-05-12T14:05:02.248Z,1.60
2023-05-12T14:07:33.230Z,2.10
2023-05-12T14:10:05.559Z,1.80
2023-05-12T14:12:37.134Z,1.90
2023-05-12T14:15:23.992Z,1.80
2023-05-12T14:18:00.058Z,1.98
2023-05-12T14:20:30.452Z,2.30
2023-05-12T14:23:01.825Z,4.45
2023-05-12T14:25:33.609Z,1.95
2023-05-12T14:28:04.378Z,1.55
2023-05-12T14:30:35.803Z,1.70
2023-05-12T14:33:06.691Z,1.70
2023-05-12T14:35:36.990Z,2.05
2023-05-12T14:38:07.969Z,1.73
2023-05-12T14:40:40.424Z,3.08
2023-05-12T14:45:41.135Z,2.20
2023-05-12T14:48:12.076Z,3.35
2023-05-12T14:50:44.606Z,1.88
2023-05-12T14:53:15.776Z,1.77
2023-05-12T14:55:47.561Z,2.55
2023-05-12T14:58:18.959Z,12.38
2023-05-12T15:00:49.498Z,3.47
2023-05-12T15:03:21.335Z,20.42
2023-05-12T15:08:25.292Z,1.90
2023-05-12T15:10:57.092Z,1.88
2023-05-12T15:13:27.802Z,2.07
2023-05-12T15:15:58.238Z,2.03
2023-05-12T15:18:28.790Z,2.38
2023-05-12T15:20:59.301Z,2.80
2023-05-12T15:23:29.882Z,2.22
2023-05-12T15:26:15.549Z,2.22
2023-05-12T15:28:57.085Z,2.38
2023-05-12T15:31:30.306Z,2.17
2023-05-12T15:34:01.000Z,2.40
2023-05-12T15:36:32.482Z,2.97
2023-05-12T15:39:05.205Z,2.00
2023-05-12T15:41:36.819Z,3.03
2023-05-12T15:44:07.715Z,2.15
2023-05-12T15:46:37.952Z,1.75
2023-05-12T15:49:08.815Z,2.42
2023-05-12T15:51:39.454Z,2.08
2023-05-12T15:54:10.103Z,1.42
2023-05-12T15:56:42.048Z,2.03
2023-05-12T15:59:12.760Z,2.38
2023-05-12T16:01:43.141Z,2.65
2023-05-12T16:04:13.996Z,2.13
2023-05-12T16:06:44.355Z,2.38
2023-05-12T16:09:15.121Z,2.40
2023-05-12T16:11:46.809Z,1.90
2023-05-12T16:14:18.836Z,2.95
2023-05-12T16:16:49.573Z,2.33
2023-05-12T16:19:20.455Z,2.13
2023-05-12T16:21:50.758Z,2.00
2023-05-12T16:24:21.998Z,2.28
2023-05-12T16:26:53.537Z,2.08
2023-05-12T16:29:24.823Z,2.27
2023-05-12T16:31:55.110Z,2.25
2023-05-12T16:34:26.196Z,2.17
2023-05-12T16:36:56.443Z,2.10
2023-05-12T16:39:27.179Z,2.10
2023-05-12T16:42:00.510Z,2.20
2023-05-12T16:44:31.104Z,2.38
2023-05-12T16:47:01.316Z,2.28
2023-05-12T16:49:31.916Z,2.15
2023-05-12T16:52:02.188Z,2.70
2023-05-12T16:54:34.282Z,2.40
2023-05-12T16:57:06.538Z,2.17
2023-05-12T16:59:39.720Z,2.50
2023-05-12T17:02:11.018Z,2.83
2023-05-12T17:04:41.821Z,2.20
2023-05-12T17:07:12.337Z,2.30
2023-05-12T17:09:45.998Z,2.40
2023-05-12T17:12:17.854Z,2.30
2023-05-12T17:14:56.101Z,2.00
2023-05-12T17:17:34.162Z,2.30
2023-05-12T17:20:06.193Z,2.10
2023-05-12T17:22:42.435Z,2.30
2023-05-12T17:25:13.695Z,2.50
2023-05-12T17:27:46.477Z,2.10
2023-05-12T17:30:18.524Z,2.40
2023-05-12T17:32:51.495Z,1.80
2023-05-12T17:35:22.717Z,2.47
2023-05-12T17:37:56.222Z,1.83
2023-05-12T17:40:29.616Z,2.33
2023-05-12T17:43:01.462Z,5.10
2023-05-12T17:45:32.654Z,2.25
2023-05-12T17:48:03.282Z,2.17
2023-05-12T17:50:36.693Z,2.30
2023-05-12T17:53:07.388Z,2.17
2023-05-12T17:55:40.962Z,2.55
2023-05-12T17:58:13.811Z,2.08
2023-05-12T18:00:44.775Z,2.60
2023-05-12T18:03:15.311Z,2.55
2023-05-12T18:05:45.946Z,2.20
2023-05-12T18:08:18.709Z,2.42
2023-05-12T18:10:49.861Z,2.20
2023-05-12T18:13:21.956Z,2.63
2023-05-12T18:15:52.781Z,2.35
2023-05-12T18:18:26.544Z,3.60
2023-05-12T18:20:57.464Z,8.35
2023-05-12T18:23:29.151Z,7.72
2023-05-12T18:26:02.568Z,12.18
2023-05-12T18:28:34.279Z,8.75
2023-05-12T18:31:15.103Z,8.60
2023-05-12T18:33:52.125Z,5.70
2023-05-12T18:36:24.642Z,5.78
2023-05-12T18:38:55.127Z,5.28
2023-05-12T18:41:26.105Z,4.57
2023-05-12T18:43:58.134Z,4.43
2023-05-12T18:46:29.760Z,4.70
2023-05-12T18:49:00.147Z,5.63
2023-05-12T18:51:31.512Z,4.72
2023-05-12T18:54:04.220Z,6.07
2023-05-12T18:59:07.427Z,5.28
2023-05-12T19:01:38.241Z,4.27
2023-05-12T19:04:08.756Z,8.23
2023-05-12T19:06:39.594Z,5.18
2023-05-12T19:09:10.325Z,4.28
2023-05-12T19:11:42.304Z,4.70
2023-05-12T19:14:16.044Z,4.57
2023-05-12T19:16:48.602Z,4.53
2023-05-12T19:19:20.198Z,7.07
2023-05-12T19:21:54.089Z,4.38
2023-05-12T19:24:27.268Z,3.83
2023-05-12T19:27:00.641Z,4.40
2023-05-12T19:29:33.007Z,3.88
2023-05-12T19:32:03.849Z,5.00
2023-05-12T19:34:35.165Z,4.43
2023-05-12T19:37:12.204Z,4.00
2023-05-12T19:39:42.496Z,4.18
2023-05-12T19:42:13.355Z,4.10
2023-05-12T19:44:45.500Z,4.55
2023-05-12T19:47:16.682Z,4.43
2023-05-12T19:49:47.449Z,3.85
2023-05-12T19:52:19.109Z,4.47
2023-05-12T19:54:49.852Z,4.68
2023-05-12T19:57:21.037Z,4.30
2023-05-12T19:59:53.556Z,3.92
2023-05-12T20:02:28.517Z,3.55
2023-05-12T20:05:01.398Z,4.13
2023-05-12T20:07:32.166Z,4.00
2023-05-12T20:10:02.660Z,4.65
2023-05-12T20:12:33.354Z,4.95
2023-05-12T20:15:06.937Z,5.40
2023-05-12T20:17:38.308Z,5.28
2023-05-12T20:20:12.222Z,4.85
2023-05-12T20:22:43.569Z,4.78
2023-05-12T20:25:16.319Z,4.75
2023-05-12T20:27:48.320Z,5.20
2023-05-12T20:30:23.498Z,5.00
2023-05-12T20:32:55.157Z,5.47
2023-05-12T20:35:26.203Z,5.00
2023-05-12T20:37:57.807Z,7.07
2023-05-12T20:40:29.253Z,4.43
2023-05-12T20:43:00.695Z,4.68
2023-05-12T20:45:32.966Z,4.47
2023-05-12T20:48:04.613Z,4.80
2023-05-12T20:50:35.076Z,4.10
2023-05-12T20:53:06.317Z,4.38
2023-05-12T20:55:37.026Z,7.68
2023-05-12T20:58:08.895Z,12.52
2023-05-12T21:00:43.731Z,31.38
2023-05-12T21:03:19.259Z,14.95
2023-05-12T21:05:50.249Z,12.07
2023-05-12T21:08:21.264Z,14.27
2023-05-12T21:10:52.747Z,11.50
2023-05-12T21:13:24.928Z,7.72
2023-05-12T21:15:56.975Z,5.75
2023-05-12T21:18:28.570Z,4.78
2023-05-12T21:21:02.684Z,5.88
2023-05-12T21:23:33.691Z,6.68
2023-05-12T21:26:04.336Z,4.40
2023-05-12T21:28:35.364Z,4.35
2023-05-12T21:31:11.716Z,3.70
2023-05-12T21:33:42.421Z,4.50
2023-05-12T21:36:12.773Z,4.63
2023-05-12T21:38:48.478Z,4.78
2023-05-12T21:41:19.268Z,4.35
2023-05-12T21:43:51.530Z,4.32
2023-05-12T21:46:24.231Z,5.32
2023-05-12T21:48:57.227Z,4.32
2023-05-12T21:51:28.906Z,4.57
2023-05-12T21:53:59.445Z,4.78
2023-05-12T21:56:31.922Z,4.65
2023-05-12T21:59:03.544Z,4.97
2023-05-12T22:01:35.320Z,4.63
2023-05-12T22:04:07.855Z,3.88
2023-05-12T22:06:43.404Z,4.20
2023-05-12T22:09:16.929Z,4.75
2023-05-12T22:11:47.486Z,4.80
2023-05-12T22:14:18.006Z,4.43
2023-05-12T22:16:49.863Z,4.50
2023-05-12T22:19:20.794Z,5.18
2023-05-12T22:21:51.201Z,4.38
2023-05-12T22:24:21.794Z,4.78
2023-05-12T22:26:52.244Z,4.50
2023-05-12T22:29:22.953Z,5.15
2023-05-12T22:31:54.613Z,4.63
2023-05-12T22:34:24.969Z,5.07
2023-05-12T22:36:55.496Z,4.68
2023-05-12T22:39:26.055Z,5.18
2023-05-12T22:41:56.441Z,4.55
2023-05-12T22:44:27.201Z,5.07
2023-05-12T22:46:59.232Z,4.55
2023-05-12T22:49:29.932Z,5.15
2023-05-12T22:52:01.160Z,5.32
2023-05-12T22:54:31.925Z,4.80
2023-05-12T22:57:02.149Z,5.25
2023-05-12T22:59:32.602Z,5.53
2023-05-12T23:02:04.260Z,4.97
2023-05-12T23:04:34.878Z,5.70
2023-05-12T23:07:07.701Z,5.18
2023-05-12T23:09:39.842Z,5.28
2023-05-12T23:12:10.879Z,5.20
2023-05-12T23:14:41.434Z,5.60
2023-05-12T23:17:13.195Z,4.68
2023-05-12T23:19:43.931Z,5.18
2023-05-12T23:22:14.367Z,4.47
2023-05-12T23:24:45.402Z,4.80
2023-05-12T23:27:15.681Z,4.90
2023-05-12T23:29:46.552Z,4.32
2023-05-12T23:32:18.315Z,4.82
2023-05-12T23:34:48.836Z,4.10
2023-05-12T23:37:19.770Z,5.03
2023-05-12T23:39:50.455Z,4.13
2023-05-12T23:42:20.724Z,4.45
2023-05-12T23:44:51.372Z,4.45
2023-05-12T23:47:23.115Z,4.72
2023-05-12T23:49:53.756Z,4.90
2023-05-12T23:52:23.991Z,4.32
2023-05-12T23:54:54.659Z,4.28
2023-05-12T23:57:24.873Z,4.60
2023-05-12T23:59:55.702Z,5.07
